createdAt,value
2023-05-05T00:02:41.306Z,18.24
2023-05-05T00:07:43.091Z,18.48
2023-05-05T00:12:44.882Z,18.13
2023-05-05T00:17:46.608Z,19.89
2023-05-05T00:22:48.783Z,18.87
2023-05-05T00:27:50.608Z,18.41
2023-05-05T00:32:52.507Z,18.73
2023-05-05T00:37:55.248Z,18.01
2023-05-05T00:42:56.912Z,18.26
2023-05-05T00:47:59.971Z,18.48
2023-05-05T00:53:05.948Z,18.95
2023-05-05T00:58:08.058Z,17.52
2023-05-05T01:03:09.954Z,17.90
2023-05-05T01:08:25.630Z,18.83
2023-05-05T01:13:42.861Z,18.73
2023-05-05T01:18:58.383Z,18.86
2023-05-05T01:24:24.780Z,18.52
2023-05-05T01:29:26.536Z,17.63
2023-05-05T01:34:34.494Z,18.39
2023-05-05T01:39:38.701Z,19.01
2023-05-05T01:44:43.755Z,19.14
2023-05-05T01:49:47.836Z,19.91
2023-05-05T01:54:50.737Z,19.11
2023-05-05T01:59:53.695Z,17.98
2023-05-05T02:04:57.969Z,18.68
2023-05-05T02:10:02.558Z,18.48
2023-05-05T02:15:05.827Z,18.69
2023-05-05T02:20:12.223Z,18.38
2023-05-05T02:25:14.113Z,18.65
2023-05-05T02:30:20.053Z,17.55
2023-05-05T02:35:26.848Z,16.83
2023-05-05T02:40:31.108Z,19.31
2023-05-05T02:45:33.084Z,18.16
2023-05-05T02:50:34.742Z,19.44
2023-05-05T02:56:06.187Z,19.26
2023-05-05T03:01:31.134Z,18.89
2023-05-05T03:06:39.506Z,18.12
2023-05-05T03:12:06.955Z,18.50
2023-05-05T03:17:12.941Z,18.61
2023-05-05T03:22:14.795Z,18.34
2023-05-05T03:27:16.549Z,18.44
2023-05-05T03:32:18.241Z,17.37
2023-05-05T03:37:19.849Z,18.07
2023-05-05T03:42:21.655Z,18.50
2023-05-05T03:47:24.732Z,19.18
2023-05-05T03:52:26.420Z,19.38
2023-05-05T03:57:28.155Z,18.19
2023-05-05T04:02:29.867Z,17.68
2023-05-05T04:07:31.577Z,17.75
2023-05-05T04:12:33.405Z,18.07
2023-05-05T04:17:35.230Z,17.46
2023-05-05T04:22:37.086Z,17.59
2023-05-05T04:27:38.949Z,17.07
2023-05-05T04:32:40.922Z,16.62
2023-05-05T04:37:42.667Z,17.20
2023-05-05T04:42:44.340Z,16.56
2023-05-05T04:47:46.563Z,16.25
2023-05-05T04:52:48.603Z,17.41
2023-05-05T04:57:50.253Z,17.25
2023-05-05T05:02:52.617Z,17.11
2023-05-05T05:07:54.377Z,17.88
2023-05-05T05:12:56.126Z,16.21
2023-05-05T05:17:57.977Z,17.70
2023-05-05T05:23:02.158Z,17.15
2023-05-05T05:28:10.267Z,17.18
2023-05-05T05:33:12.577Z,17.04
2023-05-05T05:38:14.484Z,17.96
2023-05-05T05:43:16.171Z,17.53
2023-05-05T05:48:17.909Z,18.32
2023-05-05T05:53:19.757Z,17.65
2023-05-05T05:58:21.536Z,18.32
2023-05-05T06:03:23.390Z,17.94
2023-05-05T06:08:25.559Z,19.08
2023-05-05T06:13:27.422Z,19.05
2023-05-05T06:18:29.028Z,18.68
2023-05-05T06:23:30.845Z,19.50
2023-05-05T06:28:32.547Z,19.98
2023-05-05T06:33:34.294Z,19.44
2023-05-05T06:38:36.529Z,19.43
2023-05-05T06:43:38.155Z,18.18
2023-05-05T06:48:40.176Z,19.45
2023-05-05T06:53:41.968Z,19.51
2023-05-05T06:58:43.738Z,19.67
2023-05-05T07:03:45.667Z,20.17
2023-05-05T07:08:47.383Z,19.38
2023-05-05T07:13:49.460Z,18.83
2023-05-05T07:18:51.078Z,19.91
2023-05-05T07:23:52.896Z,19.43
2023-05-05T07:28:57.268Z,19.57
2023-05-05T07:33:58.913Z,19.67
2023-05-05T07:39:00.873Z,20.00
2023-05-05T07:44:02.526Z,20.39
2023-05-05T07:49:04.298Z,20.65
2023-05-05T07:54:06.142Z,20.49
2023-05-05T07:59:07.883Z,21.26
2023-05-05T08:04:10.024Z,21.42
2023-05-05T08:09:11.914Z,21.12
2023-05-05T08:14:13.712Z,21.93
2023-05-05T08:19:25.276Z,21.63
2023-05-05T08:24:30.176Z,22.70
2023-05-05T08:29:31.793Z,21.91
2023-05-05T08:34:33.423Z,21.29
2023-05-05T08:39:35.392Z,21.61
2023-05-05T08:44:37.141Z,21.94
2023-05-05T08:49:48.026Z,22.19
2023-05-05T08:55:07.027Z,21.96
2023-05-05T09:00:10.932Z,21.66
2023-05-05T09:05:12.615Z,21.50
2023-05-05T09:10:14.452Z,20.91
2023-05-05T09:15:16.470Z,21.89
2023-05-05T09:20:18.321Z,21.87
2023-05-05T09:25:20.007Z,22.78
2023-05-05T09:30:26.992Z,22.12
2023-05-05T09:35:29.291Z,21.70
2023-05-05T09:40:46.650Z,22.22
2023-05-05T09:45:49.143Z,21.85
2023-05-05T09:50:51.257Z,23.06
2023-05-05T09:56:00.551Z,22.31
2023-05-05T10:01:02.238Z,22.43
2023-05-05T10:06:04.777Z,22.31
2023-05-05T10:11:07.190Z,22.99
2023-05-05T10:16:12.141Z,21.95
2023-05-05T10:21:18.153Z,22.79
2023-05-05T10:26:22.549Z,24.25
2023-05-05T10:31:30.210Z,23.61
2023-05-05T10:36:32.428Z,23.17
2023-05-05T10:41:34.336Z,23.68
2023-05-05T10:46:36.499Z,23.39
2023-05-05T10:51:54.984Z,24.22
2023-05-05T10:56:59.085Z,24.00
2023-05-05T11:06:31.097Z,21.08
2023-05-05T11:12:05.430Z,22.05
2023-05-05T11:17:45.829Z,22.05
2023-05-05T11:23:02.949Z,22.10
2023-05-05T11:28:15.311Z,21.14
2023-05-05T11:33:26.517Z,21.99
2023-05-05T11:38:49.744Z,22.22
2023-05-05T11:44:08.606Z,20.88
2023-05-05T11:49:10.834Z,22.28
2023-05-05T11:54:13.705Z,22.42
2023-05-05T11:59:15.465Z,22.19
2023-05-05T12:04:19.648Z,22.71
2023-05-05T12:09:23.226Z,23.30
2023-05-05T12:14:25.676Z,22.60
2023-05-05T12:19:33.245Z,22.29
2023-05-05T12:24:35.162Z,21.97
2023-05-05T12:29:37.042Z,21.55
2023-05-05T12:34:38.956Z,21.96
2023-05-05T12:39:40.634Z,22.83
2023-05-05T12:44:44.227Z,23.41
2023-05-05T12:49:50.499Z,22.84
2023-05-05T12:54:59.729Z,23.38
2023-05-05T13:00:13.712Z,22.36
2023-05-05T13:05:15.357Z,23.40
2023-05-05T13:10:16.988Z,24.17
2023-05-05T13:15:18.582Z,23.78
2023-05-05T13:20:20.187Z,22.88
2023-05-05T13:25:21.755Z,23.74
2023-05-05T13:30:23.389Z,23.56
2023-05-05T13:35:25.101Z,22.38
2023-05-05T13:40:26.735Z,24.19
2023-05-05T13:45:28.922Z,23.20
2023-05-05T13:50:30.524Z,22.91
2023-05-05T13:55:32.158Z,23.25
2023-05-05T14:00:34.813Z,22.84
2023-05-05T14:05:37.516Z,23.97
2023-05-05T14:10:40.501Z,22.22
2023-05-05T14:15:42.473Z,23.20
2023-05-05T14:20:44.082Z,23.39
2023-05-05T14:25:45.848Z,23.87
2023-05-05T14:30:47.440Z,24.11
2023-05-05T14:35:49.304Z,22.49
2023-05-05T14:40:51.019Z,23.06
2023-05-05T14:45:53.227Z,23.52
2023-05-05T14:50:54.824Z,23.73
2023-05-05T14:55:56.558Z,23.04
2023-05-05T15:00:58.329Z,20.38
2023-05-05T15:05:59.971Z,20.53
2023-05-05T15:11:01.737Z,17.49
2023-05-05T15:16:03.421Z,18.04
2023-05-05T15:21:05.188Z,19.43
2023-05-05T15:26:07.226Z,20.59
2023-05-05T15:31:08.862Z,20.13
2023-05-05T15:36:10.660Z,20.15
2023-05-05T15:41:12.209Z,18.45
2023-05-05T15:46:13.920Z,19.67
2023-05-05T15:51:15.610Z,20.15
2023-05-05T15:56:17.279Z,21.24
2023-05-05T16:01:18.955Z,19.47
2023-05-05T16:06:20.588Z,20.10
2023-05-05T16:11:23.570Z,19.25
2023-05-05T16:16:25.166Z,20.58
2023-05-05T16:21:27.608Z,20.53
2023-05-05T16:26:29.161Z,21.21
2023-05-05T16:31:32.095Z,22.49
2023-05-05T16:36:33.788Z,20.56
2023-05-05T16:41:35.411Z,20.91
2023-05-05T16:46:37.549Z,21.95
2023-05-05T16:51:39.525Z,21.64
2023-05-05T16:56:41.079Z,21.92
2023-05-05T17:01:43.439Z,21.88
2023-05-05T17:06:45.090Z,22.29
2023-05-05T17:11:46.721Z,20.26
2023-05-05T17:16:48.357Z,19.28
2023-05-05T17:21:49.972Z,19.91
2023-05-05T17:26:51.940Z,21.47
2023-05-05T17:31:54.230Z,18.46
2023-05-05T17:36:56.383Z,18.64
2023-05-05T17:41:57.971Z,18.55
2023-05-05T17:46:59.569Z,19.05
2023-05-05T17:52:01.272Z,19.56
2023-05-05T17:57:02.938Z,20.40
2023-05-05T18:02:04.841Z,19.47
2023-05-05T18:07:06.634Z,18.22
2023-05-05T18:12:08.343Z,16.61
2023-05-05T18:17:10.030Z,16.89
2023-05-05T18:22:12.064Z,18.53
2023-05-05T18:27:13.726Z,18.77
2023-05-05T18:32:15.691Z,18.31
2023-05-05T18:37:17.289Z,19.02
2023-05-05T18:42:18.855Z,17.03
2023-05-05T18:47:20.564Z,17.87
2023-05-05T18:52:22.107Z,16.96
2023-05-05T18:57:23.717Z,17.75
2023-05-05T19:02:25.398Z,17.85
2023-05-05T19:12:49.922Z,19.79
2023-05-05T19:17:52.454Z,19.02
2023-05-05T19:22:54.292Z,19.34
2023-05-05T19:27:55.916Z,20.62
2023-05-05T19:32:57.568Z,17.93
2023-05-05T19:37:59.579Z,18.79
2023-05-05T19:43:01.151Z,19.27
2023-05-05T19:48:02.985Z,19.63
2023-05-05T19:53:04.832Z,18.06
2023-05-05T19:58:06.424Z,18.84
2023-05-05T20:03:08.763Z,19.29
2023-05-05T20:08:10.521Z,18.13
2023-05-05T20:13:19.738Z,18.71
2023-05-05T20:18:21.456Z,17.82
2023-05-05T20:23:23.156Z,18.60
2023-05-05T20:28:24.808Z,17.41
2023-05-05T20:33:27.155Z,18.09
2023-05-05T20:38:28.840Z,18.89
2023-05-05T20:43:30.629Z,17.63
2023-05-05T20:48:32.227Z,18.41
2023-05-05T20:53:33.966Z,18.27
2023-05-05T20:58:35.619Z,18.77
2023-05-05T21:03:37.481Z,19.02
2023-05-05T21:08:39.655Z,18.01
2023-05-05T21:13:41.254Z,18.22
2023-05-05T21:18:46.683Z,17.95
2023-05-05T21:23:48.267Z,17.53
2023-05-05T21:28:49.830Z,18.84
2023-05-05T21:33:51.385Z,18.77
2023-05-05T21:38:57.109Z,18.00
2023-05-05T21:44:00.026Z,18.93
2023-05-05T21:49:12.820Z,18.90
2023-05-05T21:54:14.445Z,17.38
2023-05-05T21:59:17.176Z,18.49
2023-05-05T22:04:19.109Z,17.78
2023-05-05T22:09:20.961Z,18.13
2023-05-05T22:14:22.541Z,17.34
2023-05-05T22:19:24.088Z,17.32
2023-05-05T22:24:25.774Z,17.69
2023-05-05T22:29:27.500Z,17.64
2023-05-05T22:34:29.196Z,17.02
2023-05-05T22:39:30.794Z,16.62
2023-05-05T22:44:32.516Z,16.71
2023-05-05T22:49:34.287Z,15.35
2023-05-05T22:54:36.153Z,16.27
2023-05-05T22:59:37.789Z,17.19
2023-05-05T23:04:39.455Z,17.66
2023-05-05T23:09:41.164Z,17.14
2023-05-05T23:14:42.797Z,18.03
2023-05-05T23:19:47.794Z,17.95
2023-05-05T23:24:49.364Z,17.43
2023-05-05T23:29:51.066Z,16.59
2023-05-05T23:34:52.709Z,17.00
2023-05-05T23:39:54.463Z,16.65
2023-05-05T23:44:56.107Z,16.27
2023-05-05T23:49:57.719Z,17.68
2023-05-05T23:54:59.244Z,16.05
